sensor_id;sensor_type;location;lat;lon;timestamp;P1;durP1;ratioP1;P2;durP2;ratioP2
6862;SDS011;3470;48.738;9.616;2022-07-06T00:01:45;3.93;;;3.43;;
6862;SDS011;3470;48.738;9.616;2022-07-06T00:04:10;3.70;;;3.23;;
6862;SDS011;3470;48.738;9.616;2022-07-06T00:06:36;4.10;;;3.50;;
6862;SDS011;3470;48.738;9.616;2022-07-06T00:09:04;5.03;;;3.47;;
6862;SDS011;3470;48.738;9.616;2022-07-06T00:11:30;3.73;;;3.23;;
6862;SDS011;3470;48.738;9.616;2022-07-06T00:13:56;3.90;;;3.00;;
6862;SDS011;3470;48.738;9.616;2022-07-06T00:16:22;5.40;;;3.20;;
6862;SDS011;3470;48.738;9.616;2022-07-06T00:18:48;4.67;;;3.00;;
6862;SDS011;3470;48.738;9.616;2022-07-06T00:21:14;4.93;;;3.33;;
6862;SDS011;3470;48.738;9.616;2022-07-06T00:23:40;3.33;;;3.03;;
6862;SDS011;3470;48.738;9.616;2022-07-06T00:26:06;4.27;;;3.63;;
6862;SDS011;3470;48.738;9.616;2022-07-06T00:28:31;5.40;;;3.50;;
6862;SDS011;3470;48.738;9.616;2022-07-06T00:30:57;3.67;;;3.37;;
6862;SDS011;3470;48.738;9.616;2022-07-06T00:33:23;5.90;;;4.50;;
6862;SDS011;3470;48.738;9.616;2022-07-06T00:35:48;3.93;;;3.53;;
6862;SDS011;3470;48.738;9.616;2022-07-06T00:38:14;4.37;;;3.40;;
6862;SDS011;3470;48.738;9.616;2022-07-06T00:40:40;3.83;;;3.43;;
6862;SDS011;3470;48.738;9.616;2022-07-06T00:43:06;5.73;;;2.90;;
6862;SDS011;3470;48.738;9.616;2022-07-06T00:45:32;5.63;;;3.67;;
6862;SDS011;3470;48.738;9.616;2022-07-06T00:47:57;3.27;;;2.70;;
6862;SDS011;3470;48.738;9.616;2022-07-06T00:50:23;4.00;;;2.60;;
6862;SDS011;3470;48.738;9.616;2022-07-06T00:52:53;3.33;;;3.03;;
6862;SDS011;3470;48.738;9.616;2022-07-06T00:55:21;3.07;;;2.80;;
6862;SDS011;3470;48.738;9.616;2022-07-06T00:57:48;5.83;;;2.50;;
6862;SDS011;3470;48.738;9.616;2022-07-06T01:00:15;3.50;;;3.03;;
6862;SDS011;3470;48.738;9.616;2022-07-06T01:02:43;3.67;;;2.63;;
6862;SDS011;3470;48.738;9.616;2022-07-06T01:05:09;5.83;;;2.67;;
6862;SDS011;3470;48.738;9.616;2022-07-06T01:07:36;3.97;;;2.80;;
6862;SDS011;3470;48.738;9.616;2022-07-06T01:10:03;3.30;;;3.00;;
6862;SDS011;3470;48.738;9.616;2022-07-06T01:12:30;5.40;;;3.20;;
6862;SDS011;3470;48.738;9.616;2022-07-06T01:14:56;2.97;;;2.70;;
6862;SDS011;3470;48.738;9.616;2022-07-06T01:17:22;3.90;;;3.10;;
6862;SDS011;3470;48.738;9.616;2022-07-06T01:19:48;3.80;;;3.27;;
6862;SDS011;3470;48.738;9.616;2022-07-06T01:22:14;3.37;;;3.07;;
6862;SDS011;3470;48.738;9.616;2022-07-06T01:24:40;3.40;;;2.97;;
6862;SDS011;3470;48.738;9.616;2022-07-06T01:27:06;2.87;;;2.67;;
6862;SDS011;3470;48.738;9.616;2022-07-06T01:29:35;3.70;;;3.17;;
6862;SDS011;3470;48.738;9.616;2022-07-06T01:32:01;5.20;;;3.20;;
6862;SDS011;3470;48.738;9.616;2022-07-06T01:34:26;3.47;;;2.70;;
6862;SDS011;3470;48.738;9.616;2022-07-06T01:36:52;3.50;;;2.97;;
6862;SDS011;3470;48.738;9.616;2022-07-06T01:39:18;3.53;;;2.80;;
6862;SDS011;3470;48.738;9.616;2022-07-06T01:41:44;4.73;;;3.40;;
6862;SDS011;3470;48.738;9.616;2022-07-06T01:44:10;3.77;;;3.07;;
6862;SDS011;3470;48.738;9.616;2022-07-06T01:46:36;4.20;;;3.20;;
6862;SDS011;3470;48.738;9.616;2022-07-06T01:49:01;3.87;;;3.33;;
6862;SDS011;3470;48.738;9.616;2022-07-06T01:51:28;4.73;;;3.47;;
6862;SDS011;3470;48.738;9.616;2022-07-06T01:53:53;4.90;;;3.47;;
6862;SDS011;3470;48.738;9.616;2022-07-06T01:56:19;3.73;;;3.33;;
6862;SDS011;3470;48.738;9.616;2022-07-06T01:58:45;4.63;;;3.60;;
6862;SDS011;3470;48.738;9.616;2022-07-06T02:01:12;3.90;;;3.40;;
6862;SDS011;3470;48.738;9.616;2022-07-06T02:03:40;4.70;;;3.47;;
6862;SDS011;3470;48.738;9.616;2022-07-06T02:06:06;3.40;;;3.10;;
6862;SDS011;3470;48.738;9.616;2022-07-06T02:08:33;3.50;;;3.20;;
6862;SDS011;3470;48.738;9.616;2022-07-06T02:10:59;4.07;;;3.43;;
6862;SDS011;3470;48.738;9.616;2022-07-06T02:13:26;4.10;;;3.40;;
6862;SDS011;3470;48.738;9.616;2022-07-06T02:15:51;3.43;;;3.10;;
6862;SDS011;3470;48.738;9.616;2022-07-06T02:18:17;3.80;;;3.40;;
6862;SDS011;3470;48.738;9.616;2022-07-06T02:20:43;5.10;;;4.33;;
6862;SDS011;3470;48.738;9.616;2022-07-06T02:23:08;4.97;;;3.90;;
6862;SDS011;3470;48.738;9.616;2022-07-06T02:25:34;4.73;;;4.23;;
6862;SDS011;3470;48.738;9.616;2022-07-06T02:28:00;3.87;;;3.23;;
6862;SDS011;3470;48.738;9.616;2022-07-06T02:30:25;5.23;;;4.10;;
6862;SDS011;3470;48.738;9.616;2022-07-06T02:32:51;3.47;;;3.17;;
6862;SDS011;3470;48.738;9.616;2022-07-06T02:35:17;4.53;;;3.50;;
6862;SDS011;3470;48.738;9.616;2022-07-06T02:37:42;3.93;;;3.40;;
6862;SDS011;3470;48.738;9.616;2022-07-06T02:40:08;3.93;;;3.63;;
6862;SDS011;3470;48.738;9.616;2022-07-06T02:42:34;4.93;;;3.63;;
6862;SDS011;3470;48.738;9.616;2022-07-06T02:45:00;3.90;;;3.60;;
6862;SDS011;3470;48.738;9.616;2022-07-06T02:47:26;5.13;;;4.00;;
6862;SDS011;3470;48.738;9.616;2022-07-06T02:49:52;7.23;;;4.40;;
6862;SDS011;3470;48.738;9.616;2022-07-06T02:52:18;5.13;;;4.57;;
6862;SDS011;3470;48.738;9.616;2022-07-06T02:54:44;5.90;;;4.47;;
6862;SDS011;3470;48.738;9.616;2022-07-06T02:57:10;5.23;;;4.43;;
6862;SDS011;3470;48.738;9.616;2022-07-06T02:59:36;5.50;;;4.17;;
6862;SDS011;3470;48.738;9.616;2022-07-06T03:02:03;6.63;;;4.50;;
6862;SDS011;3470;48.738;9.616;2022-07-06T03:04:29;5.40;;;4.23;;
6862;SDS011;3470;48.738;9.616;2022-07-06T03:06:55;6.90;;;4.30;;
6862;SDS011;3470;48.738;9.616;2022-07-06T03:09:20;4.27;;;3.87;;
6862;SDS011;3470;48.738;9.616;2022-07-06T03:11:46;4.83;;;4.00;;
6862;SDS011;3470;48.738;9.616;2022-07-06T03:14:12;5.40;;;3.83;;
6862;SDS011;3470;48.738;9.616;2022-07-06T03:16:37;4.30;;;3.90;;
6862;SDS011;3470;48.738;9.616;2022-07-06T03:19:03;3.90;;;3.60;;
6862;SDS011;3470;48.738;9.616;2022-07-06T03:21:28;4.00;;;3.50;;
6862;SDS011;3470;48.738;9.616;2022-07-06T03:23:54;5.63;;;4.53;;
6862;SDS011;3470;48.738;9.616;2022-07-06T03:26:20;5.40;;;4.60;;
6862;SDS011;3470;48.738;9.616;2022-07-06T03:28:45;5.70;;;4.97;;
6862;SDS011;3470;48.738;9.616;2022-07-06T03:31:11;5.30;;;4.80;;
6862;SDS011;3470;48.738;9.616;2022-07-06T03:33:36;5.97;;;5.20;;
6862;SDS011;3470;48.738;9.616;2022-07-06T03:36:02;6.53;;;5.00;;
6862;SDS011;3470;48.738;9.616;2022-07-06T03:38:28;5.80;;;5.20;;
6862;SDS011;3470;48.738;9.616;2022-07-06T03:40:53;6.37;;;4.80;;
6862;SDS011;3470;48.738;9.616;2022-07-06T03:43:19;5.87;;;5.23;;
6862;SDS011;3470;48.738;9.616;2022-07-06T03:45:44;6.10;;;5.60;;
6862;SDS011;3470;48.738;9.616;2022-07-06T03:48:10;6.17;;;5.60;;
6862;SDS011;3470;48.738;9.616;2022-07-06T03:50:36;7.10;;;5.23;;
6862;SDS011;3470;48.738;9.616;2022-07-06T03:53:01;6.13;;;5.20;;
6862;SDS011;3470;48.738;9.616;2022-07-06T03:55:27;8.27;;;5.57;;
6862;SDS011;3470;48.738;9.616;2022-07-06T03:57:53;6.30;;;5.70;;
6862;SDS011;3470;48.738;9.616;2022-07-06T04:00:18;7.53;;;5.27;;
6862;SDS011;3470;48.738;9.616;2022-07-06T04:02:44;6.13;;;5.53;;
6862;SDS011;3470;48.738;9.616;2022-07-06T04:05:09;5.03;;;4.63;;
6862;SDS011;3470;48.738;9.616;2022-07-06T04:07:35;5.87;;;4.50;;
6862;SDS011;3470;48.738;9.616;2022-07-06T04:10:00;4.90;;;4.40;;
6862;SDS011;3470;48.738;9.616;2022-07-06T04:12:26;5.43;;;4.90;;
6862;SDS011;3470;48.738;9.616;2022-07-06T04:14:52;4.90;;;4.37;;
6862;SDS011;3470;48.738;9.616;2022-07-06T04:17:20;4.87;;;4.47;;
6862;SDS011;3470;48.738;9.616;2022-07-06T04:20:04;4.37;;;3.97;;
6862;SDS011;3470;48.738;9.616;2022-07-06T04:22:30;5.07;;;4.53;;
6862;SDS011;3470;48.738;9.616;2022-07-06T04:24:56;5.73;;;4.07;;
6862;SDS011;3470;48.738;9.616;2022-07-06T04:27:22;4.90;;;4.43;;
6862;SDS011;3470;48.738;9.616;2022-07-06T04:29:47;4.30;;;3.90;;
6862;SDS011;3470;48.738;9.616;2022-07-06T04:32:13;4.00;;;3.60;;
6862;SDS011;3470;48.738;9.616;2022-07-06T04:34:38;4.40;;;3.83;;
6862;SDS011;3470;48.738;9.616;2022-07-06T04:37:04;4.10;;;3.60;;
6862;SDS011;3470;48.738;9.616;2022-07-06T04:39:29;4.63;;;4.13;;
6862;SDS011;3470;48.738;9.616;2022-07-06T04:41:56;4.20;;;3.77;;
6862;SDS011;3470;48.738;9.616;2022-07-06T04:44:22;5.37;;;3.30;;
6862;SDS011;3470;48.738;9.616;2022-07-06T04:46:48;4.23;;;3.40;;
6862;SDS011;3470;48.738;9.616;2022-07-06T04:49:13;3.87;;;3.43;;
6862;SDS011;3470;48.738;9.616;2022-07-06T04:51:39;4.47;;;3.53;;
6862;SDS011;3470;48.738;9.616;2022-07-06T04:54:04;5.97;;;4.20;;
6862;SDS011;3470;48.738;9.616;2022-07-06T04:56:30;4.40;;;3.90;;
6862;SDS011;3470;48.738;9.616;2022-07-06T04:58:56;3.83;;;3.47;;
6862;SDS011;3470;48.738;9.616;2022-07-06T05:01:21;6.93;;;3.50;;
6862;SDS011;3470;48.738;9.616;2022-07-06T05:03:47;4.33;;;3.63;;
6862;SDS011;3470;48.738;9.616;2022-07-06T05:06:13;3.90;;;3.60;;
6862;SDS011;3470;48.738;9.616;2022-07-06T05:08:38;4.03;;;3.63;;
6862;SDS011;3470;48.738;9.616;2022-07-06T05:11:04;4.37;;;3.97;;
6862;SDS011;3470;48.738;9.616;2022-07-06T05:13:29;4.40;;;4.00;;
6862;SDS011;3470;48.738;9.616;2022-07-06T05:15:55;4.47;;;4.03;;
6862;SDS011;3470;48.738;9.616;2022-07-06T05:18:21;3.57;;;3.27;;
6862;SDS011;3470;48.738;9.616;2022-07-06T05:20:46;4.03;;;3.63;;
6862;SDS011;3470;48.738;9.616;2022-07-06T05:23:13;4.77;;;4.00;;
6862;SDS011;3470;48.738;9.616;2022-07-06T05:25:38;5.57;;;3.70;;
6862;SDS011;3470;48.738;9.616;2022-07-06T05:28:04;4.23;;;3.83;;
6862;SDS011;3470;48.738;9.616;2022-07-06T05:30:30;5.77;;;3.93;;
6862;SDS011;3470;48.738;9.616;2022-07-06T05:32:55;5.50;;;4.57;;
6862;SDS011;3470;48.738;9.616;2022-07-06T05:35:21;5.03;;;4.23;;
6862;SDS011;3470;48.738;9.616;2022-07-06T05:37:47;6.10;;;4.30;;
6862;SDS011;3470;48.738;9.616;2022-07-06T05:40:12;4.20;;;3.80;;
6862;SDS011;3470;48.738;9.616;2022-07-06T05:42:38;6.67;;;4.10;;
6862;SDS011;3470;48.738;9.616;2022-07-06T05:45:04;5.00;;;4.40;;
6862;SDS011;3470;48.738;9.616;2022-07-06T05:47:31;5.17;;;4.03;;
6862;SDS011;3470;48.738;9.616;2022-07-06T05:50:15;5.23;;;3.77;;
6862;SDS011;3470;48.738;9.616;2022-07-06T05:52:42;4.27;;;3.97;;
6862;SDS011;3470;48.738;9.616;2022-07-06T05:55:10;4.73;;;3.27;;
6862;SDS011;3470;48.738;9.616;2022-07-06T05:57:37;5.13;;;3.47;;
6862;SDS011;3470;48.738;9.616;2022-07-06T06:00:04;4.83;;;3.10;;
6862;SDS011;3470;48.738;9.616;2022-07-06T06:02:39;5.87;;;2.80;;
6862;SDS011;3470;48.738;9.616;2022-07-06T06:05:07;5.77;;;2.70;;
6862;SDS011;3470;48.738;9.616;2022-07-06T06:07:34;4.20;;;3.00;;
6862;SDS011;3470;48.738;9.616;2022-07-06T06:10:01;4.77;;;2.80;;
6862;SDS011;3470;48.738;9.616;2022-07-06T06:12:28;5.93;;;2.80;;
6862;SDS011;3470;48.738;9.616;2022-07-06T06:14:54;3.30;;;3.00;;
6862;SDS011;3470;48.738;9.616;2022-07-06T06:17:19;3.45;;;3.15;;
6862;SDS011;3470;48.738;9.616;2022-07-06T06:19:45;4.25;;;3.85;;
6862;SDS011;3470;48.738;9.616;2022-07-06T06:22:10;5.63;;;3.80;;
6862;SDS011;3470;48.738;9.616;2022-07-06T06:24:36;7.70;;;3.50;;
6862;SDS011;3470;48.738;9.616;2022-07-06T06:27:02;3.70;;;3.40;;
6862;SDS011;3470;48.738;9.616;2022-07-06T06:29:28;4.65;;;3.88;;
6862;SDS011;3470;48.738;9.616;2022-07-06T06:31:54;5.82;;;3.80;;
6862;SDS011;3470;48.738;9.616;2022-07-06T06:34:19;4.32;;;3.83;;
6862;SDS011;3470;48.738;9.616;2022-07-06T06:36:45;5.13;;;4.10;;
6862;SDS011;3470;48.738;9.616;2022-07-06T06:39:10;5.60;;;4.13;;
6862;SDS011;3470;48.738;9.616;2022-07-06T06:41:36;4.32;;;3.58;;
6862;SDS011;3470;48.738;9.616;2022-07-06T06:44:02;4.65;;;3.67;;
6862;SDS011;3470;48.738;9.616;2022-07-06T06:46:27;4.63;;;3.55;;
6862;SDS011;3470;48.738;9.616;2022-07-06T06:48:53;5.28;;;3.63;;
6862;SDS011;3470;48.738;9.616;2022-07-06T06:51:18;3.60;;;3.30;;
6862;SDS011;3470;48.738;9.616;2022-07-06T06:53:45;4.53;;;3.00;;
6862;SDS011;3470;48.738;9.616;2022-07-06T06:56:11;4.65;;;3.33;;
6862;SDS011;3470;48.738;9.616;2022-07-06T06:58:37;3.53;;;3.13;;
6862;SDS011;3470;48.738;9.616;2022-07-06T07:01:03;3.95;;;2.83;;
6862;SDS011;3470;48.738;9.616;2022-07-06T07:03:29;3.28;;;3.00;;
6862;SDS011;3470;48.738;9.616;2022-07-06T07:05:55;5.90;;;3.63;;
6862;SDS011;3470;48.738;9.616;2022-07-06T07:08:20;3.80;;;3.17;;
6862;SDS011;3470;48.738;9.616;2022-07-06T07:10:46;4.15;;;2.97;;
6862;SDS011;3470;48.738;9.616;2022-07-06T07:13:12;3.47;;;3.08;;
6862;SDS011;3470;48.738;9.616;2022-07-06T07:15:37;4.72;;;3.03;;
6862;SDS011;3470;48.738;9.616;2022-07-06T07:18:03;4.07;;;3.65;;
6862;SDS011;3470;48.738;9.616;2022-07-06T07:20:28;5.32;;;2.72;;
6862;SDS011;3470;48.738;9.616;2022-07-06T07:22:55;4.13;;;2.97;;
6862;SDS011;3470;48.738;9.616;2022-07-06T07:25:21;5.63;;;2.65;;
6862;SDS011;3470;48.738;9.616;2022-07-06T07:27:47;3.97;;;2.97;;
6862;SDS011;3470;48.738;9.616;2022-07-06T07:30:13;3.58;;;3.28;;
6862;SDS011;3470;48.738;9.616;2022-07-06T07:32:39;4.65;;;3.38;;
6862;SDS011;3470;48.738;9.616;2022-07-06T07:35:07;5.28;;;2.72;;
6862;SDS011;3470;48.738;9.616;2022-07-06T07:37:33;4.68;;;3.58;;
6862;SDS011;3470;48.738;9.616;2022-07-06T07:39:59;34.28;;;7.30;;
6862;SDS011;3470;48.738;9.616;2022-07-06T07:42:25;46.08;;;8.85;;
6862;SDS011;3470;48.738;9.616;2022-07-06T07:44:51;12.85;;;4.60;;
6862;SDS011;3470;48.738;9.616;2022-07-06T07:47:16;4.72;;;3.20;;
6862;SDS011;3470;48.738;9.616;2022-07-06T07:49:42;4.55;;;3.55;;
6862;SDS011;3470;48.738;9.616;2022-07-06T07:52:08;3.33;;;3.10;;
6862;SDS011;3470;48.738;9.616;2022-07-06T07:54:34;3.45;;;2.75;;
6862;SDS011;3470;48.738;9.616;2022-07-06T07:57:00;2.50;;;2.30;;
6862;SDS011;3470;48.738;9.616;2022-07-06T07:59:25;3.30;;;2.55;;
6862;SDS011;3470;48.738;9.616;2022-07-06T08:01:51;4.20;;;3.17;;
6862;SDS011;3470;48.738;9.616;2022-07-06T08:04:17;3.97;;;2.70;;
6862;SDS011;3470;48.738;9.616;2022-07-06T08:06:43;4.80;;;2.53;;
6862;SDS011;3470;48.738;9.616;2022-07-06T08:09:08;3.70;;;2.17;;
6862;SDS011;3470;48.738;9.616;2022-07-06T08:11:34;5.57;;;2.88;;
6862;SDS011;3470;48.738;9.616;2022-07-06T08:14:00;4.40;;;2.75;;
6862;SDS011;3470;48.738;9.616;2022-07-06T08:16:27;3.17;;;2.38;;
6862;SDS011;3470;48.738;9.616;2022-07-06T08:18:52;2.90;;;2.38;;
6862;SDS011;3470;48.738;9.616;2022-07-06T08:21:18;4.03;;;3.22;;
6862;SDS011;3470;48.738;9.616;2022-07-06T08:23:44;3.65;;;2.72;;
6862;SDS011;3470;48.738;9.616;2022-07-06T08:26:10;3.03;;;2.20;;
6862;SDS011;3470;48.738;9.616;2022-07-06T08:28:35;6.80;;;2.53;;
6862;SDS011;3470;48.738;9.616;2022-07-06T08:31:01;3.13;;;2.50;;
6862;SDS011;3470;48.738;9.616;2022-07-06T08:33:26;4.88;;;2.15;;
6862;SDS011;3470;48.738;9.616;2022-07-06T08:35:52;2.58;;;2.05;;
6862;SDS011;3470;48.738;9.616;2022-07-06T08:38:18;3.50;;;2.00;;
6862;SDS011;3470;48.738;9.616;2022-07-06T08:40:43;3.70;;;2.20;;
6862;SDS011;3470;48.738;9.616;2022-07-06T08:43:13;3.05;;;2.38;;
6862;SDS011;3470;48.738;9.616;2022-07-06T08:45:40;8.48;;;2.13;;
6862;SDS011;3470;48.738;9.616;2022-07-06T08:48:08;2.85;;;2.00;;
6862;SDS011;3470;48.738;9.616;2022-07-06T08:50:35;5.10;;;2.42;;
6862;SDS011;3470;48.738;9.616;2022-07-06T08:53:00;2.92;;;2.15;;
6862;SDS011;3470;48.738;9.616;2022-07-06T08:55:27;2.38;;;2.08;;
6862;SDS011;3470;48.738;9.616;2022-07-06T08:57:54;2.85;;;1.95;;
6862;SDS011;3470;48.738;9.616;2022-07-06T09:00:21;3.30;;;2.15;;
6862;SDS011;3470;48.738;9.616;2022-07-06T09:02:48;2.60;;;2.30;;
6862;SDS011;3470;48.738;9.616;2022-07-06T09:05:21;2.33;;;1.92;;
6862;SDS011;3470;48.738;9.616;2022-07-06T09:07:51;2.72;;;1.83;;
6862;SDS011;3470;48.738;9.616;2022-07-06T09:10:17;3.78;;;2.00;;
6862;SDS011;3470;48.738;9.616;2022-07-06T09:12:45;2.78;;;2.38;;
6862;SDS011;3470;48.738;9.616;2022-07-06T09:15:11;4.75;;;2.13;;
6862;SDS011;3470;48.738;9.616;2022-07-06T09:17:37;2.85;;;2.20;;
6862;SDS011;3470;48.738;9.616;2022-07-06T09:20:06;2.10;;;1.92;;
6862;SDS011;3470;48.738;9.616;2022-07-06T09:22:33;3.13;;;2.05;;
6862;SDS011;3470;48.738;9.616;2022-07-06T09:27:39;4.82;;;2.30;;
6862;SDS011;3470;48.738;9.616;2022-07-06T09:30:07;3.42;;;2.03;;
6862;SDS011;3470;48.738;9.616;2022-07-06T09:32:40;2.40;;;2.10;;
6862;SDS011;3470;48.738;9.616;2022-07-06T09:35:08;6.00;;;2.33;;
6862;SDS011;3470;48.738;9.616;2022-07-06T09:37:45;3.70;;;2.20;;
6862;SDS011;3470;48.738;9.616;2022-07-06T09:40:16;2.35;;;2.08;;
6862;SDS011;3470;48.738;9.616;2022-07-06T09:42:43;4.38;;;2.30;;
6862;SDS011;3470;48.738;9.616;2022-07-06T09:45:09;4.25;;;2.70;;
6862;SDS011;3470;48.738;9.616;2022-07-06T09:47:34;4.78;;;2.35;;
6862;SDS011;3470;48.738;9.616;2022-07-06T09:50:04;2.92;;;2.20;;
6862;SDS011;3470;48.738;9.616;2022-07-06T09:52:33;3.15;;;2.40;;
6862;SDS011;3470;48.738;9.616;2022-07-06T09:55:00;2.47;;;1.85;;
6862;SDS011;3470;48.738;9.616;2022-07-06T09:57:25;2.97;;;2.33;;
6862;SDS011;3470;48.738;9.616;2022-07-06T09:59:51;2.72;;;2.10;;
6862;SDS011;3470;48.738;9.616;2022-07-06T10:02:17;2.28;;;2.08;;
6862;SDS011;3470;48.738;9.616;2022-07-06T10:04:45;4.22;;;2.10;;
6862;SDS011;3470;48.738;9.616;2022-07-06T10:07:11;2.22;;;2.00;;
6862;SDS011;3470;48.738;9.616;2022-07-06T10:09:38;6.00;;;1.88;;
6862;SDS011;3470;48.738;9.616;2022-07-06T10:12:06;3.45;;;2.10;;
6862;SDS011;3470;48.738;9.616;2022-07-06T10:14:37;3.00;;;2.17;;
6862;SDS011;3470;48.738;9.616;2022-07-06T10:17:04;2.42;;;2.00;;
6862;SDS011;3470;48.738;9.616;2022-07-06T10:19:31;4.40;;;1.90;;
6862;SDS011;3470;48.738;9.616;2022-07-06T10:22:01;2.40;;;2.20;;
6862;SDS011;3470;48.738;9.616;2022-07-06T10:24:28;2.33;;;1.92;;
6862;SDS011;3470;48.738;9.616;2022-07-06T10:26:55;4.65;;;2.20;;
6862;SDS011;3470;48.738;9.616;2022-07-06T10:29:21;2.30;;;2.03;;
6862;SDS011;3470;48.738;9.616;2022-07-06T10:31:48;3.63;;;2.30;;
6862;SDS011;3470;48.738;9.616;2022-07-06T10:34:17;5.72;;;2.30;;
6862;SDS011;3470;48.738;9.616;2022-07-06T10:36:44;3.47;;;2.40;;
6862;SDS011;3470;48.738;9.616;2022-07-06T10:39:13;3.33;;;2.40;;
6862;SDS011;3470;48.738;9.616;2022-07-06T10:41:58;4.13;;;2.13;;
6862;SDS011;3470;48.738;9.616;2022-07-06T10:44:24;2.42;;;2.22;;
6862;SDS011;3470;48.738;9.616;2022-07-06T10:46:55;4.68;;;2.30;;
6862;SDS011;3470;48.738;9.616;2022-07-06T10:49:22;3.10;;;2.17;;
6862;SDS011;3470;48.738;9.616;2022-07-06T10:51:49;4.50;;;2.45;;
6862;SDS011;3470;48.738;9.616;2022-07-06T10:54:16;3.35;;;2.25;;
6862;SDS011;3470;48.738;9.616;2022-07-06T10:56:46;2.40;;;1.98;;
6862;SDS011;3470;48.738;9.616;2022-07-06T10:59:16;2.55;;;2.10;;
6862;SDS011;3470;48.738;9.616;2022-07-06T11:04:38;3.05;;;2.13;;
6862;SDS011;3470;48.738;9.616;2022-07-06T11:07:08;2.25;;;2.05;;
6862;SDS011;3470;48.738;9.616;2022-07-06T11:09:38;4.53;;;1.83;;
6862;SDS011;3470;48.738;9.616;2022-07-06T11:12:16;3.72;;;2.00;;
6862;SDS011;3470;48.738;9.616;2022-07-06T11:14:44;4.30;;;2.10;;
6862;SDS011;3470;48.738;9.616;2022-07-06T11:17:10;2.63;;;2.05;;
6862;SDS011;3470;48.738;9.616;2022-07-06T11:19:36;3.45;;;2.30;;
6862;SDS011;3470;48.738;9.616;2022-07-06T11:22:06;5.30;;;1.92;;
6862;SDS011;3470;48.738;9.616;2022-07-06T11:24:35;3.53;;;2.08;;
6862;SDS011;3470;48.738;9.616;2022-07-06T11:27:02;7.10;;;2.67;;
6862;SDS011;3470;48.738;9.616;2022-07-06T11:29:29;2.65;;;2.00;;
6862;SDS011;3470;48.738;9.616;2022-07-06T11:31:57;3.67;;;2.20;;
6862;SDS011;3470;48.738;9.616;2022-07-06T11:34:29;4.45;;;2.47;;
6862;SDS011;3470;48.738;9.616;2022-07-06T11:37:29;3.15;;;2.40;;
6862;SDS011;3470;48.738;9.616;2022-07-06T11:39:48;2.53;;;2.05;;
6862;SDS011;3470;48.738;9.616;2022-07-06T11:42:15;4.07;;;2.33;;
6862;SDS011;3470;48.738;9.616;2022-07-06T11:44:42;3.47;;;2.30;;
6862;SDS011;3470;48.738;9.616;2022-07-06T11:47:09;3.42;;;2.40;;
6862;SDS011;3470;48.738;9.616;2022-07-06T11:49:36;2.20;;;2.00;;
6862;SDS011;3470;48.738;9.616;2022-07-06T11:52:06;2.65;;;2.13;;
6862;SDS011;3470;48.738;9.616;2022-07-06T11:54:33;2.72;;;2.05;;
6862;SDS011;3470;48.738;9.616;2022-07-06T11:56:59;2.80;;;1.95;;
6862;SDS011;3470;48.738;9.616;2022-07-06T12:04:37;4.47;;;2.10;;
6862;SDS011;3470;48.738;9.616;2022-07-06T12:07:05;6.03;;;2.00;;
6862;SDS011;3470;48.738;9.616;2022-07-06T12:09:37;3.20;;;1.80;;
6862;SDS011;3470;48.738;9.616;2022-07-06T12:12:04;2.20;;;1.70;;
6862;SDS011;3470;48.738;9.616;2022-07-06T12:14:31;2.50;;;1.88;;
6862;SDS011;3470;48.738;9.616;2022-07-06T12:17:02;3.33;;;2.08;;
6862;SDS011;3470;48.738;9.616;2022-07-06T12:19:35;3.38;;;2.22;;
6862;SDS011;3470;48.738;9.616;2022-07-06T12:22:02;3.05;;;2.33;;
6862;SDS011;3470;48.738;9.616;2022-07-06T12:24:29;2.40;;;1.60;;
6862;SDS011;3470;48.738;9.616;2022-07-06T12:26:56;2.83;;;1.70;;
6862;SDS011;3470;48.738;9.616;2022-07-06T12:29:22;4.50;;;2.05;;
6862;SDS011;3470;48.738;9.616;2022-07-06T12:31:50;3.25;;;1.95;;
6862;SDS011;3470;48.738;9.616;2022-07-06T12:34:21;2.45;;;2.05;;
6862;SDS011;3470;48.738;9.616;2022-07-06T12:36:51;3.03;;;2.20;;
6862;SDS011;3470;48.738;9.616;2022-07-06T12:39:22;4.07;;;1.67;;
6862;SDS011;3470;48.738;9.616;2022-07-06T12:44:24;2.33;;;2.00;;
6862;SDS011;3470;48.738;9.616;2022-07-06T12:47:03;4.72;;;2.00;;
6862;SDS011;3470;48.738;9.616;2022-07-06T12:49:30;4.20;;;2.17;;
6862;SDS011;3470;48.738;9.616;2022-07-06T12:52:00;3.67;;;2.00;;
6862;SDS011;3470;48.738;9.616;2022-07-06T12:54:32;4.20;;;2.30;;
6862;SDS011;3470;48.738;9.616;2022-07-06T12:59:33;4.32;;;2.33;;
6862;SDS011;3470;48.738;9.616;2022-07-06T13:02:01;3.30;;;2.20;;
6862;SDS011;3470;48.738;9.616;2022-07-06T13:04:27;3.13;;;2.00;;
6862;SDS011;3470;48.738;9.616;2022-07-06T13:06:54;3.20;;;2.10;;
6862;SDS011;3470;48.738;9.616;2022-07-06T13:09:21;3.45;;;2.20;;
6862;SDS011;3470;48.738;9.616;2022-07-06T13:11:50;4.75;;;2.38;;
6862;SDS011;3470;48.738;9.616;2022-07-06T13:14:16;4.28;;;2.40;;
6862;SDS011;3470;48.738;9.616;2022-07-06T13:16:45;7.03;;;2.35;;
6862;SDS011;3470;48.738;9.616;2022-07-06T13:19:12;2.70;;;2.00;;
6862;SDS011;3470;48.738;9.616;2022-07-06T13:21:38;2.80;;;2.00;;
6862;SDS011;3470;48.738;9.616;2022-07-06T13:24:04;4.13;;;2.50;;
6862;SDS011;3470;48.738;9.616;2022-07-06T13:26:30;4.10;;;2.30;;
6862;SDS011;3470;48.738;9.616;2022-07-06T13:29:00;5.72;;;2.25;;
6862;SDS011;3470;48.738;9.616;2022-07-06T13:31:26;6.00;;;2.33;;
6862;SDS011;3470;48.738;9.616;2022-07-06T13:33:52;5.43;;;2.20;;
6862;SDS011;3470;48.738;9.616;2022-07-06T13:36:18;3.42;;;2.38;;
6862;SDS011;3470;48.738;9.616;2022-07-06T13:38:44;4.25;;;2.58;;
6862;SDS011;3470;48.738;9.616;2022-07-06T13:41:10;5.15;;;2.42;;
6862;SDS011;3470;48.738;9.616;2022-07-06T13:43:35;2.70;;;2.38;;
6862;SDS011;3470;48.738;9.616;2022-07-06T13:46:02;4.20;;;2.17;;
6862;SDS011;3470;48.738;9.616;2022-07-06T13:48:32;3.45;;;2.30;;
6862;SDS011;3470;48.738;9.616;2022-07-06T13:50:58;2.80;;;2.20;;
6862;SDS011;3470;48.738;9.616;2022-07-06T13:53:25;4.32;;;2.50;;
6862;SDS011;3470;48.738;9.616;2022-07-06T13:55:50;4.10;;;2.40;;
6862;SDS011;3470;48.738;9.616;2022-07-06T13:58:16;5.07;;;2.30;;
6862;SDS011;3470;48.738;9.616;2022-07-06T14:00:42;4.95;;;2.63;;
6862;SDS011;3470;48.738;9.616;2022-07-06T14:03:07;2.92;;;2.20;;
6862;SDS011;3470;48.738;9.616;2022-07-06T14:05:33;3.85;;;2.60;;
6862;SDS011;3470;48.738;9.616;2022-07-06T14:08:00;7.35;;;2.63;;
6862;SDS011;3470;48.738;9.616;2022-07-06T14:10:26;5.00;;;2.60;;
6862;SDS011;3470;48.738;9.616;2022-07-06T14:12:52;5.43;;;2.88;;
6862;SDS011;3470;48.738;9.616;2022-07-06T14:15:17;6.00;;;2.63;;
6862;SDS011;3470;48.738;9.616;2022-07-06T14:17:43;3.35;;;2.30;;
6862;SDS011;3470;48.738;9.616;2022-07-06T14:20:09;4.65;;;2.55;;
6862;SDS011;3470;48.738;9.616;2022-07-06T14:22:36;5.63;;;2.65;;
6862;SDS011;3470;48.738;9.616;2022-07-06T14:25:02;4.40;;;2.72;;
6862;SDS011;3470;48.738;9.616;2022-07-06T14:27:28;2.60;;;2.40;;
6862;SDS011;3470;48.738;9.616;2022-07-06T14:29:53;5.28;;;2.60;;
6862;SDS011;3470;48.738;9.616;2022-07-06T14:32:19;4.18;;;2.35;;
6862;SDS011;3470;48.738;9.616;2022-07-06T14:34:45;3.63;;;2.67;;
6862;SDS011;3470;48.738;9.616;2022-07-06T14:37:10;4.78;;;2.20;;
6862;SDS011;3470;48.738;9.616;2022-07-06T14:39:36;5.53;;;2.25;;
6862;SDS011;3470;48.738;9.616;2022-07-06T14:42:02;8.95;;;2.20;;
6862;SDS011;3470;48.738;9.616;2022-07-06T14:44:28;3.60;;;2.25;;
6862;SDS011;3470;48.738;9.616;2022-07-06T14:46:53;3.20;;;2.30;;
6862;SDS011;3470;48.738;9.616;2022-07-06T14:49:19;3.65;;;2.17;;
6862;SDS011;3470;48.738;9.616;2022-07-06T14:51:44;3.03;;;2.35;;
6862;SDS011;3470;48.738;9.616;2022-07-06T14:54:10;3.88;;;2.20;;
6862;SDS011;3470;48.738;9.616;2022-07-06T14:56:36;4.05;;;2.40;;
6862;SDS011;3470;48.738;9.616;2022-07-06T14:59:02;4.03;;;2.00;;
6862;SDS011;3470;48.738;9.616;2022-07-06T15:01:27;4.05;;;2.17;;
6862;SDS011;3470;48.738;9.616;2022-07-06T15:03:53;2.50;;;2.30;;
6862;SDS011;3470;48.738;9.616;2022-07-06T15:06:18;2.78;;;2.28;;
6862;SDS011;3470;48.738;9.616;2022-07-06T15:08:44;5.53;;;2.42;;
6862;SDS011;3470;48.738;9.616;2022-07-06T15:11:11;2.80;;;2.15;;
6862;SDS011;3470;48.738;9.616;2022-07-06T15:13:37;4.53;;;2.28;;
6862;SDS011;3470;48.738;9.616;2022-07-06T15:16:03;3.00;;;2.30;;
6862;SDS011;3470;48.738;9.616;2022-07-06T15:18:29;3.83;;;2.47;;
6862;SDS011;3470;48.738;9.616;2022-07-06T15:20:55;4.20;;;2.30;;
6862;SDS011;3470;48.738;9.616;2022-07-06T15:23:20;2.25;;;2.03;;
6862;SDS011;3470;48.738;9.616;2022-07-06T15:25:46;3.13;;;2.05;;
6862;SDS011;3470;48.738;9.616;2022-07-06T15:28:12;3.97;;;2.15;;